Time;durP1;ratioP1;P1;durP2;ratioP2;P2;SDS_P1;SDS_P2;PMS_P1;PMS_P2;Temp;Humidity;BMP_temperature;BMP_pressure;BME280_temperature;BME280_humidity;BME280_pressure;Samples;Min_cycle;Max_cycle;Signal;HPM_P1;HPM_P2
2022/08/14 00:01:49;;;;;;;7.30;3.40;;;;;;;;;;5070981;28;20040;-61
2022/08/14 00:04:14;;;;;;;9.55;3.58;;;;;;;;;;5071659;28;20024;-61
2022/08/14 00:06:40;;;;;;;5.32;3.40;;;;;;;;;;5071705;28;20032;-61
2022/08/14 00:09:06;;;;;;;6.03;3.58;;;;;;;;;;5071392;28;20039;-61
2022/08/14 00:11:31;;;;;;;8.88;3.70;;;;;;;;;;5071758;28;20036;-61
2022/08/14 00:13:58;;;;;;;9.07;3.42;;;;;;;;;;5071450;28;20029;-61
2022/08/14 00:16:23;;;;;;;9.40;3.55;;;;;;;;;;5071477;28;20025;-61
2022/08/14 00:18:49;;;;;;;5.70;3.60;;;;;;;;;;5071120;28;20058;-62
2022/08/14 00:21:15;;;;;;;8.65;3.60;;;;;;;;;;5071445;28;20028;-61
2022/08/14 00:23:41;;;;;;;10.02;3.72;;;;;;;;;;5071143;28;20489;-62
2022/08/14 00:26:07;;;;;;;5.97;4.00;;;;;;;;;;5071214;28;20032;-61
2022/08/14 00:28:34;;;;;;;9.50;3.63;;;;;;;;;;5070157;28;20393;-61
2022/08/14 00:31:00;;;;;;;11.02;3.63;;;;;;;;;;5071338;28;20481;-61
2022/08/14 00:33:27;;;;;;;7.57;3.72;;;;;;;;;;5071381;28;20054;-61
2022/08/14 00:35:53;;;;;;;5.45;3.45;;;;;;;;;;5071122;28;20124;-61
2022/08/14 00:38:20;;;;;;;7.70;3.58;;;;;;;;;;5071055;28;20024;-61
2022/08/14 00:40:46;;;;;;;10.55;3.70;;;;;;;;;;5069970;28;20077;-61
2022/08/14 00:43:12;;;;;;;7.88;4.47;;;;;;;;;;5071154;28;20099;-62
2022/08/14 00:45:37;;;;;;;6.30;3.45;;;;;;;;;;5071013;28;20103;-61
2022/08/14 00:48:03;;;;;;;7.10;3.90;;;;;;;;;;5071022;28;20599;-62
2022/08/14 00:50:29;;;;;;;12.70;3.20;;;;;;;;;;5070865;28;20027;-61
2022/08/14 00:52:58;;;;;;;10.30;3.55;;;;;;;;;;5070994;28;20025;-62
2022/08/14 00:55:26;;;;;;;7.57;3.63;;;;;;;;;;5070963;28;20028;-61
2022/08/14 01:00:38;;;;;;;7.25;3.40;;;;;;;;;;5071294;28;20111;-61
2022/08/14 01:03:06;;;;;;;10.70;3.38;;;;;;;;;;5071100;28;20020;-61
2022/08/14 01:05:33;;;;;;;10.70;3.42;;;;;;;;;;5070994;28;20033;-61
2022/08/14 01:07:59;;;;;;;6.65;3.28;;;;;;;;;;5070744;28;20460;-61
2022/08/14 01:10:49;;;;;;;7.90;3.50;;;;;;;;;;5071019;28;20074;-61
2022/08/14 01:13:15;;;;;;;9.15;3.70;;;;;;;;;;5070786;28;20028;-61
2022/08/14 01:15:45;;;;;;;9.05;3.92;;;;;;;;;;5074661;28;20024;-61
2022/08/14 01:21:03;;;;;;;7.18;3.90;;;;;;;;;;5074728;28;20039;-61
2022/08/14 01:23:29;;;;;;;7.38;3.65;;;;;;;;;;5074667;28;20534;-60
2022/08/14 01:25:57;;;;;;;9.55;4.20;;;;;;;;;;5074419;28;20028;-61
2022/08/14 01:28:23;;;;;;;5.53;3.60;;;;;;;;;;5074568;28;20111;-61
2022/08/14 01:30:48;;;;;;;11.55;4.70;;;;;;;;;;5074491;28;20024;-61
2022/08/14 01:33:15;;;;;;;11.38;4.38;;;;;;;;;;5074265;28;20070;-61
2022/08/14 01:35:45;;;;;;;10.88;4.35;;;;;;;;;;5074050;28;20025;-60
2022/08/14 01:38:13;;;;;;;10.23;4.05;;;;;;;;;;5074305;28;20029;-61
2022/08/14 01:40:40;;;;;;;8.30;4.43;;;;;;;;;;5074129;28;20044;-61
2022/08/14 01:43:16;;;;;;;16.00;4.65;;;;;;;;;;5072743;28;20028;-61
2022/08/14 01:45:44;;;;;;;6.47;3.90;;;;;;;;;;5074192;28;20389;-61
2022/08/14 01:48:10;;;;;;;12.07;4.60;;;;;;;;;;5074174;28;20032;-61
2022/08/14 01:50:37;;;;;;;7.00;4.05;;;;;;;;;;5074013;28;20097;-62
2022/08/14 01:53:02;;;;;;;7.68;4.30;;;;;;;;;;5074073;28;20516;-62
2022/08/14 01:55:30;;;;;;;12.35;4.10;;;;;;;;;;5073944;28;20035;-61
2022/08/14 01:57:56;;;;;;;8.00;4.10;;;;;;;;;;5073977;28;20028;-62
2022/08/14 02:00:22;;;;;;;6.38;4.35;;;;;;;;;;5073914;28;20021;-61
2022/08/14 02:02:48;;;;;;;6.05;3.97;;;;;;;;;;5073940;28;20077;-61
2022/08/14 02:05:14;;;;;;;7.55;4.05;;;;;;;;;;5073723;28;20036;-62
2022/08/14 02:07:42;;;;;;;6.97;4.15;;;;;;;;;;5073832;28;20036;-61
2022/08/14 02:10:09;;;;;;;5.15;4.38;;;;;;;;;;5073828;28;20098;-61
2022/08/14 02:12:35;;;;;;;8.38;4.38;;;;;;;;;;5073737;28;20531;-61
2022/08/14 02:15:02;;;;;;;11.43;4.40;;;;;;;;;;5073645;28;20032;-61
2022/08/14 02:17:28;;;;;;;9.63;3.95;;;;;;;;;;5073516;28;20040;-62
2022/08/14 02:19:54;;;;;;;5.65;3.92;;;;;;;;;;5073040;28;20037;-61
2022/08/14 02:22:20;;;;;;;5.63;4.05;;;;;;;;;;5073593;28;20025;-62
2022/08/14 02:24:45;;;;;;;10.15;4.10;;;;;;;;;;5072942;28;20059;-61
2022/08/14 02:27:11;;;;;;;7.35;4.07;;;;;;;;;;5073302;28;20035;-62
2022/08/14 02:29:37;;;;;;;7.95;3.92;;;;;;;;;;5073329;28;20099;-61
2022/08/14 02:32:03;;;;;;;6.82;4.10;;;;;;;;;;5073239;28;20498;-62
2022/08/14 02:34:35;;;;;;;7.57;4.30;;;;;;;;;;5073004;28;20100;-62
2022/08/14 02:37:09;;;;;;;9.18;3.92;;;;;;;;;;5073336;28;20354;-62
2022/08/14 02:39:39;;;;;;;9.07;4.28;;;;;;;;;;5073225;28;20031;-62
2022/08/14 02:42:07;;;;;;;7.18;3.90;;;;;;;;;;5073216;28;20028;-62
2022/08/14 02:44:33;;;;;;;7.07;4.40;;;;;;;;;;5072936;28;20071;-62
2022/08/14 02:46:59;;;;;;;8.60;3.80;;;;;;;;;;5073163;28;20055;-62
2022/08/14 02:49:26;;;;;;;7.85;4.18;;;;;;;;;;5072864;28;20029;-61
2022/08/14 02:51:53;;;;;;;8.88;3.95;;;;;;;;;;5072839;28;20367;-62
2022/08/14 02:54:19;;;;;;;9.43;4.05;;;;;;;;;;5072960;28;20025;-61
2022/08/14 02:56:44;;;;;;;9.75;4.10;;;;;;;;;;5072869;28;20040;-61
2022/08/14 02:59:12;;;;;;;6.25;4.15;;;;;;;;;;5072841;28;20025;-61
2022/08/14 03:01:39;;;;;;;8.82;3.97;;;;;;;;;;5072796;28;20047;-62
2022/08/14 03:04:06;;;;;;;11.27;4.15;;;;;;;;;;5072319;28;20028;-61
2022/08/14 03:06:32;;;;;;;8.38;3.95;;;;;;;;;;5072344;28;20029;-62
2022/08/14 03:08:58;;;;;;;5.35;3.92;;;;;;;;;;5072669;28;20024;-62
2022/08/14 03:11:25;;;;;;;8.02;4.15;;;;;;;;;;5072630;28;20476;-61
2022/08/14 03:13:51;;;;;;;11.40;4.10;;;;;;;;;;5072509;28;20067;-61
2022/08/14 03:16:21;;;;;;;6.53;4.00;;;;;;;;;;5072519;28;20024;-62
2022/08/14 03:18:49;;;;;;;5.82;3.78;;;;;;;;;;5071891;28;20505;-61
2022/08/14 03:21:19;;;;;;;14.00;3.90;;;;;;;;;;5072355;28;20035;-61
2022/08/14 03:23:46;;;;;;;;;;;;;;;;;;5072679;28;20021;-61
2022/08/14 03:26:17;;;;;;;8.18;4.10;;;;;;;;;;5072233;28;19912;-61
2022/08/14 03:28:46;;;;;;;7.15;4.32;;;;;;;;;;5072251;28;20037;-61
2022/08/14 03:31:12;;;;;;;13.32;4.30;;;;;;;;;;5072195;28;20048;-61
2022/08/14 03:33:39;;;;;;;8.02;4.43;;;;;;;;;;5071890;28;20425;-61
2022/08/14 03:36:15;;;;;;;10.10;4.55;;;;;;;;;;5071478;28;20017;-62
2022/08/14 03:38:43;;;;;;;7.65;4.03;;;;;;;;;;5072144;28;20401;-62
2022/08/14 03:41:15;;;;;;;9.73;4.20;;;;;;;;;;5072096;28;20046;-61
2022/08/14 03:43:45;;;;;;;6.22;4.47;;;;;;;;;;5071956;28;20020;-61
2022/08/14 03:46:12;;;;;;;5.60;3.85;;;;;;;;;;5071815;28;20047;-61
2022/08/14 03:48:39;;;;;;;9.40;4.20;;;;;;;;;;5071787;28;20032;-62
2022/08/14 03:51:07;;;;;;;7.22;4.15;;;;;;;;;;5071798;28;20497;-61
2022/08/14 03:53:37;;;;;;;7.97;4.00;;;;;;;;;;5071895;28;20044;-61
2022/08/14 03:56:04;;;;;;;7.25;4.38;;;;;;;;;;5071697;28;20604;-62
2022/08/14 03:58:31;;;;;;;6.53;4.53;;;;;;;;;;5071627;28;20029;-61
2022/08/14 04:00:58;;;;;;;10.95;4.50;;;;;;;;;;5071571;28;20025;-62
2022/08/14 04:03:25;;;;;;;7.50;4.00;;;;;;;;;;5071632;28;20016;-61
2022/08/14 04:05:51;;;;;;;9.25;4.40;;;;;;;;;;5071560;28;20034;-61
2022/08/14 04:08:17;;;;;;;7.38;4.25;;;;;;;;;;5071410;28;20028;-61
2022/08/14 04:10:45;;;;;;;6.53;4.93;;;;;;;;;;5071545;28;20035;-62
2022/08/14 04:13:11;;;;;;;8.10;4.03;;;;;;;;;;5071636;28;20371;-61
2022/08/14 04:15:37;;;;;;;9.20;4.70;;;;;;;;;;5071357;28;20028;-61
2022/08/14 04:18:07;;;;;;;6.32;4.57;;;;;;;;;;5070873;28;20406;-61
2022/08/14 04:20:34;;;;;;;12.25;4.60;;;;;;;;;;5071761;28;20036;-62
2022/08/14 04:23:00;;;;;;;10.48;4.20;;;;;;;;;;5071461;28;20032;-61
2022/08/14 04:25:26;;;;;;;11.27;4.28;;;;;;;;;;5071274;28;20474;-61
2022/08/14 04:27:53;;;;;;;7.18;4.20;;;;;;;;;;5071268;28;20040;-62
2022/08/14 04:30:18;;;;;;;6.70;4.45;;;;;;;;;;5071111;28;20498;-62
2022/08/14 04:32:44;;;;;;;7.70;4.75;;;;;;;;;;5071546;28;20060;-61
2022/08/14 04:35:10;;;;;;;6.88;4.05;;;;;;;;;;5071294;28;20381;-61
2022/08/14 04:45:48;;;;;;;7.07;4.00;;;;;;;;;;5071145;28;20386;-62
2022/08/14 04:48:15;;;;;;;8.05;3.78;;;;;;;;;;5072907;28;20032;-62
2022/08/14 04:50:42;;;;;;;8.30;4.57;;;;;;;;;;5075092;28;20017;-62
2022/08/14 04:53:09;;;;;;;9.73;3.85;;;;;;;;;;5075245;28;20028;-59
2022/08/14 04:55:35;;;;;;;10.05;4.30;;;;;;;;;;5075167;28;20021;-59
2022/08/14 04:58:04;;;;;;;8.90;4.00;;;;;;;;;;5075034;28;20047;-60
2022/08/14 05:00:30;;;;;;;5.57;4.13;;;;;;;;;;5074901;28;20017;-59
2022/08/14 05:02:55;;;;;;;10.75;6.28;;;;;;;;;;5075022;28;20030;-59
2022/08/14 05:05:23;;;;;;;14.15;6.20;;;;;;;;;;5074968;28;20377;-60
2022/08/14 05:07:50;;;;;;;6.32;4.43;;;;;;;;;;5074654;28;20039;-60
2022/08/14 05:10:15;;;;;;;7.25;4.10;;;;;;;;;;5073475;28;20389;-60
2022/08/14 05:12:41;;;;;;;5.80;3.85;;;;;;;;;;5074886;28;20024;-60
2022/08/14 05:15:07;;;;;;;4.70;3.83;;;;;;;;;;5074604;28;20060;-60
2022/08/14 05:17:32;;;;;;;9.73;4.20;;;;;;;;;;5074679;28;20514;-62
2022/08/14 05:20:01;;;;;;;12.10;3.80;;;;;;;;;;5074327;28;20170;-62
2022/08/14 05:22:27;;;;;;;8.15;3.42;;;;;;;;;;5074674;28;20023;-61
2022/08/14 05:24:53;;;;;;;6.88;3.63;;;;;;;;;;5074581;28;20025;-61
2022/08/14 05:27:19;;;;;;;8.00;3.75;;;;;;;;;;5074536;28;20033;-61
2022/08/14 05:29:46;;;;;;;9.90;3.90;;;;;;;;;;5074255;28;20032;-61
2022/08/14 05:32:12;;;;;;;7.45;3.50;;;;;;;;;;5074511;28;20090;-61
2022/08/14 05:34:38;;;;;;;9.07;3.85;;;;;;;;;;5074340;28;20033;-61
2022/08/14 05:37:03;;;;;;;7.78;3.72;;;;;;;;;;5074461;28;20434;-61
2022/08/14 05:39:30;;;;;;;5.85;4.25;;;;;;;;;;5074312;28;20029;-61
2022/08/14 05:41:55;;;;;;;6.68;3.95;;;;;;;;;;5074443;28;20440;-60
2022/08/14 05:44:21;;;;;;;5.43;3.78;;;;;;;;;;5074073;28;20016;-60
2022/08/14 05:46:47;;;;;;;6.80;4.07;;;;;;;;;;5073975;28;20028;-60
2022/08/14 05:49:13;;;;;;;7.13;3.90;;;;;;;;;;5074121;28;20032;-61
2022/08/14 05:51:39;;;;;;;8.23;3.78;;;;;;;;;;5074368;28;20396;-61
2022/08/14 05:54:06;;;;;;;8.27;3.70;;;;;;;;;;5074028;28;20055;-61
2022/08/14 05:56:31;;;;;;;9.10;3.78;;;;;;;;;;5074054;28;20533;-61
2022/08/14 05:58:58;;;;;;;4.82;3.63;;;;;;;;;;5072188;28;20119;-61
2022/08/14 06:01:23;;;;;;;10.02;3.78;;;;;;;;;;5073890;28;20118;-61
2022/08/14 06:03:49;;;;;;;6.32;3.75;;;;;;;;;;5073861;28;20103;-61
2022/08/14 06:06:17;;;;;;;9.05;3.45;;;;;;;;;;5072501;28;20430;-61
2022/08/14 06:08:42;;;;;;;8.07;3.90;;;;;;;;;;5073839;28;20678;-61
2022/08/14 06:11:09;;;;;;;7.78;3.50;;;;;;;;;;5073749;28;20025;-61
2022/08/14 06:13:37;;;;;;;10.10;3.42;;;;;;;;;;5073874;28;20433;-62
2022/08/14 06:16:04;;;;;;;7.90;3.85;;;;;;;;;;5073885;28;20029;-61
2022/08/14 06:18:29;;;;;;;10.25;4.22;;;;;;;;;;5073703;28;20512;-62
2022/08/14 06:20:55;;;;;;;6.72;3.72;;;;;;;;;;5073493;28;20037;-61
2022/08/14 06:23:21;;;;;;;7.03;3.28;;;;;;;;;;5073617;28;20111;-61
2022/08/14 06:25:46;;;;;;;6.68;3.83;;;;;;;;;;5073128;28;20448;-61
2022/08/14 06:28:21;;;;;;;7.43;3.67;;;;;;;;;;5073357;28;20033;-61
2022/08/14 06:30:47;;;;;;;6.50;3.72;;;;;;;;;;5073536;28;20020;-61
2022/08/14 06:33:13;;;;;;;6.53;3.60;;;;;;;;;;5073303;28;20496;-61
2022/08/14 06:35:39;;;;;;;8.90;3.85;;;;;;;;;;5073277;28;20179;-61
2022/08/14 06:38:05;;;;;;;8.27;3.80;;;;;;;;;;5073110;28;20104;-62
2022/08/14 06:40:35;;;;;;;10.55;3.63;;;;;;;;;;5072890;28;20673;-62
2022/08/14 06:43:07;;;;;;;8.65;4.03;;;;;;;;;;5072052;28;20096;-61
2022/08/14 06:45:34;;;;;;;10.40;3.88;;;;;;;;;;5073068;28;20036;-62
2022/08/14 06:48:01;;;;;;;5.75;3.83;;;;;;;;;;5072907;28;20093;-61
2022/08/14 06:50:28;;;;;;;5.28;3.60;;;;;;;;;;5072915;28;20025;-61
2022/08/14 06:52:54;;;;;;;6.78;3.30;;;;;;;;;;5072949;28;20020;-61
2022/08/14 06:55:20;;;;;;;7.55;3.60;;;;;;;;;;5072674;28;20078;-60
2022/08/14 06:57:48;;;;;;;4.45;3.63;;;;;;;;;;5072782;28;20032;-61
2022/08/14 07:00:17;;;;;;;7.78;4.05;;;;;;;;;;5072743;28;20099;-60
2022/08/14 07:05:46;;;;;;;8.32;3.80;;;;;;;;;;5073034;28;20050;-60
2022/08/14 07:08:19;;;;;;;6.68;3.83;;;;;;;;;;5072662;28;20574;-60
2022/08/14 07:10:51;;;;;;;7.28;3.53;;;;;;;;;;5072119;28;20024;-61
2022/08/14 07:13:20;;;;;;;8.45;3.60;;;;;;;;;;5072556;28;20025;-60
2022/08/14 07:15:49;;;;;;;9.52;3.53;;;;;;;;;;5072462;28;20054;-61
2022/08/14 07:18:19;;;;;;;6.85;3.72;;;;;;;;;;5071817;28;20056;-61
2022/08/14 07:20:45;;;;;;;10.23;3.60;;;;;;;;;;5072443;28;20102;-61
2022/08/14 07:23:10;;;;;;;5.22;3.38;;;;;;;;;;5072307;28;20041;-61
2022/08/14 07:25:39;;;;;;;5.78;3.50;;;;;;;;;;5072171;28;20020;-61
2022/08/14 07:28:13;;;;;;;9.57;3.78;;;;;;;;;;5072113;28;20486;-61
2022/08/14 07:30:39;;;;;;;11.68;4.00;;;;;;;;;;5072327;28;20561;-61
2022/08/14 07:33:06;;;;;;;7.40;3.70;;;;;;;;;;5072268;28;20100;-61
2022/08/14 07:35:33;;;;;;;5.18;3.40;;;;;;;;;;5072189;28;21046;-61
2022/08/14 07:37:59;;;;;;;13.85;3.53;;;;;;;;;;5071864;28;20508;-61
2022/08/14 07:40:25;;;;;;;10.20;3.30;;;;;;;;;;5071854;28;20024;-61
2022/08/14 07:42:51;;;;;;;7.68;3.40;;;;;;;;;;5072211;28;20028;-61
2022/08/14 07:45:17;;;;;;;8.82;3.15;;;;;;;;;;5071856;28;20017;-61
2022/08/14 07:47:43;;;;;;;8.68;5.20;;;;;;;;;;5070468;28;20650;-62
2022/08/14 07:50:16;;;;;;;5.63;3.15;;;;;;;;;;5071806;28;20125;-61
2022/08/14 07:52:43;;;;;;;9.43;3.95;;;;;;;;;;5071829;28;20527;-61
2022/08/14 07:55:11;;;;;;;5.90;3.45;;;;;;;;;;5071792;28;20456;-61
2022/08/14 07:57:42;;;;;;;6.78;3.10;;;;;;;;;;5071739;28;20028;-61
2022/08/14 08:00:17;;;;;;;5.22;3.22;;;;;;;;;;5071687;28;20032;-61
2022/08/14 08:02:46;;;;;;;6.18;3.00;;;;;;;;;;5071639;28;20108;-61
2022/08/14 08:05:13;;;;;;;12.35;3.38;;;;;;;;;;5071686;28;20020;-62
2022/08/14 08:07:40;;;;;;;8.90;3.33;;;;;;;;;;5071573;28;20086;-61
2022/08/14 08:13:15;;;;;;;6.13;2.97;;;;;;;;;;5070505;28;20170;-62
2022/08/14 08:15:47;;;;;;;7.45;3.13;;;;;;;;;;5070761;28;20037;-61
2022/08/14 08:18:15;;;;;;;5.88;3.20;;;;;;;;;;5071294;28;20040;-62
2022/08/14 08:20:45;;;;;;;4.03;2.70;;;;;;;;;;5071562;28;20039;-62
2022/08/14 08:23:12;;;;;;;8.52;3.20;;;;;;;;;;5070799;28;20025;-61
2022/08/14 08:25:42;;;;;;;4.80;2.67;;;;;;;;;;5071495;28;20426;-62
2022/08/14 08:28:12;;;;;;;4.57;2.42;;;;;;;;;;5070127;28;20024;-61
2022/08/14 08:30:41;;;;;;;4.93;2.80;;;;;;;;;;5071119;28;20021;-61
2022/08/14 08:33:09;;;;;;;6.00;2.80;;;;;;;;;;5071414;28;20024;-62
2022/08/14 08:35:37;;;;;;;5.68;2.88;;;;;;;;;;5071138;28;20025;-63
2022/08/14 08:38:03;;;;;;;7.20;2.55;;;;;;;;;;5071021;28;20467;-64
2022/08/14 08:40:40;;;;;;;10.32;2.88;;;;;;;;;;5069966;28;20039;-62
2022/08/14 08:43:19;;;;;;;6.78;2.50;;;;;;;;;;5071314;28;20020;-63
2022/08/14 08:45:52;;;;;;;;;;;;;;;;;;5071669;28;20115;-62
2022/08/14 08:48:17;;;;;;;10.93;2.70;;;;;;;;;;5071171;28;19916;-62
2022/08/14 08:50:43;;;;;;;5.63;2.47;;;;;;;;;;5070875;28;20035;-63
2022/08/14 08:53:09;;;;;;;9.48;2.65;;;;;;;;;;5071137;28;20532;-62
2022/08/14 08:55:41;;;;;;;5.53;2.30;;;;;;;;;;5071182;28;20028;-62
2022/08/14 08:58:20;;;;;;;7.45;2.42;;;;;;;;;;5071221;28;20055;-62
2022/08/14 09:00:47;;;;;;;;;;;;;;;;;;5071637;28;20449;-62
2022/08/14 09:03:18;;;;;;;9.75;2.50;;;;;;;;;;5071166;28;19916;-61
2022/08/14 09:05:54;;;;;;;5.05;2.40;;;;;;;;;;5069279;28;20420;-62
2022/08/14 09:08:25;;;;;;;4.57;2.33;;;;;;;;;;5071031;28;20123;-62
2022/08/14 09:10:53;;;;;;;8.32;2.40;;;;;;;;;;5071069;28;20056;-62
2022/08/14 09:13:19;;;;;;;9.63;2.40;;;;;;;;;;5070975;28;20029;-62
2022/08/14 09:15:47;;;;;;;7.50;2.28;;;;;;;;;;5070711;28;20025;-62
2022/08/14 09:18:14;;;;;;;6.00;2.20;;;;;;;;;;5070681;28;20052;-61
2022/08/14 09:20:44;;;;;;;11.48;2.33;;;;;;;;;;5070768;28;20035;-63
2022/08/14 09:23:11;;;;;;;6.57;2.40;;;;;;;;;;5070684;28;20481;-62
2022/08/14 09:25:40;;;;;;;6.63;2.30;;;;;;;;;;5070905;28;20119;-64
2022/08/14 09:28:06;;;;;;;4.45;2.10;;;;;;;;;;5070673;28;20393;-60
2022/08/14 09:30:35;;;;;;;4.55;2.00;;;;;;;;;;5070726;28;20032;-62
2022/08/14 09:33:00;;;;;;;5.05;2.60;;;;;;;;;;5070835;28;20024;-61
2022/08/14 09:35:42;;;;;;;3.72;2.15;;;;;;;;;;5072350;28;20045;-62
2022/08/14 09:38:26;;;;;;;4.38;1.95;;;;;;;;;;5074418;28;20020;-61
2022/08/14 09:41:03;;;;;;;6.97;2.13;;;;;;;;;;5074521;28;20031;-61
2022/08/14 09:43:52;;;;;;;3.92;2.22;;;;;;;;;;5074443;28;20420;-62
2022/08/14 09:46:18;;;;;;;8.20;2.00;;;;;;;;;;5074281;28;20113;-61
2022/08/14 09:48:44;;;;;;;7.63;2.10;;;;;;;;;;5073962;28;20440;-61
2022/08/14 09:51:22;;;;;;;5.50;2.08;;;;;;;;;;5074110;28;20140;-62
2022/08/14 09:53:59;;;;;;;7.50;2.20;;;;;;;;;;5074031;28;20528;-61
2022/08/14 09:56:25;;;;;;;6.50;2.20;;;;;;;;;;5073986;28;20021;-61
2022/08/14 09:58:51;;;;;;;4.50;1.92;;;;;;;;;;5074102;28;20067;-61
2022/08/14 10:01:19;;;;;;;4.13;1.85;;;;;;;;;;5074081;28;20386;-62
2022/08/14 10:03:56;;;;;;;4.55;1.98;;;;;;;;;;5073628;28;20027;-62
2022/08/14 10:06:28;;;;;;;6.93;1.80;;;;;;;;;;5073752;28;20031;-61
2022/08/14 10:08:54;;;;;;;7.32;1.88;;;;;;;;;;5073809;28;20109;-62
2022/08/14 10:11:26;;;;;;;7.20;1.98;;;;;;;;;;5073668;28;20013;-62
2022/08/14 10:13:57;;;;;;;9.73;1.90;;;;;;;;;;5067360;28;20029;-62
2022/08/14 10:16:27;;;;;;;6.00;1.75;;;;;;;;;;5064992;28;20025;-62
2022/08/14 10:19:01;;;;;;;4.47;1.70;;;;;;;;;;5065700;28;20044;-62
2022/08/14 10:21:28;;;;;;;3.28;1.80;;;;;;;;;;5057011;28;20159;-61
2022/08/14 10:23:54;;;;;;;8.50;1.90;;;;;;;;;;5073127;28;20452;-62
2022/08/14 10:26:20;;;;;;;7.45;1.77;;;;;;;;;;5065080;28;20352;-62
2022/08/14 10:28:48;;;;;;;6.80;1.98;;;;;;;;;;5054472;28;20025;-62
2022/08/14 10:31:28;;;;;;;3.58;1.80;;;;;;;;;;5069609;28;20043;-62
2022/08/14 10:34:01;;;;;;;6.70;1.88;;;;;;;;;;5058891;28;20086;-63
2022/08/14 10:36:36;;;;;;;5.95;1.90;;;;;;;;;;5062308;28;20031;-62
2022/08/14 10:39:15;;;;;;;3.78;1.60;;;;;;;;;;5062503;28;20060;-62
2022/08/14 10:41:42;;;;;;;4.23;1.80;;;;;;;;;;5063721;28;20033;-63
2022/08/14 10:44:14;;;;;;;8.75;2.00;;;;;;;;;;5062889;28;20059;-62
2022/08/14 10:46:44;;;;;;;3.78;1.65;;;;;;;;;;5065517;28;20031;-63
2022/08/14 10:49:18;;;;;;;8.55;2.85;;;;;;;;;;5058053;28;20017;-63
2022/08/14 10:51:53;;;;;;;5.78;2.20;;;;;;;;;;5058859;28;20041;-64
2022/08/14 10:54:30;;;;;;;4.93;1.85;;;;;;;;;;5061830;28;20119;-65
2022/08/14 10:56:57;;;;;;;6.72;1.83;;;;;;;;;;5053951;28;20087;-63
2022/08/14 10:59:22;;;;;;;3.85;1.63;;;;;;;;;;5063977;28;20569;-64
2022/08/14 11:01:48;;;;;;;5.18;1.60;;;;;;;;;;5063701;28;20124;-62
2022/08/14 11:04:27;;;;;;;3.85;1.67;;;;;;;;;;5066915;28;20031;-61
2022/08/14 11:06:54;;;;;;;3.25;1.65;;;;;;;;;;5056832;28;20025;-63
2022/08/14 11:09:19;;;;;;;10.07;1.90;;;;;;;;;;5067828;28;20454;-61
2022/08/14 11:11:48;;;;;;;3.22;1.80;;;;;;;;;;5062439;28;20047;-62
2022/08/14 11:14:15;;;;;;;8.60;1.90;;;;;;;;;;5065401;28;20028;-62
2022/08/14 11:16:43;;;;;;;6.80;2.10;;;;;;;;;;5056614;28;20024;-62
2022/08/14 11:19:10;;;;;;;5.47;2.20;;;;;;;;;;5068821;28;20513;-62
2022/08/14 11:21:40;;;;;;;4.25;1.90;;;;;;;;;;5060993;28;20485;-62
2022/08/14 11:24:06;;;;;;;;;;;;;;;;;;5065403;28;20028;-62
2022/08/14 11:26:34;;;;;;;3.55;1.83;;;;;;;;;;5057402;28;20396;-61
2022/08/14 11:29:04;;;;;;;7.28;2.33;;;;;;;;;;5072778;28;20095;-61
2022/08/14 11:31:31;;;;;;;6.45;2.25;;;;;;;;;;5071436;28;20067;-61
2022/08/14 11:33:57;;;;;;;6.05;2.30;;;;;;;;;;5072510;28;20078;-61
2022/08/14 11:36:27;;;;;;;8.73;1.83;;;;;;;;;;5071944;28;20521;-61
2022/08/14 11:38:53;;;;;;;8.35;2.78;;;;;;;;;;5071882;28;20090;-61
2022/08/14 11:41:19;;;;;;;8.07;2.50;;;;;;;;;;5072319;28;20024;-62
2022/08/14 11:43:47;;;;;;;9.93;3.67;;;;;;;;;;5072772;28;20024;-61
2022/08/14 11:46:15;;;;;;;3.72;2.22;;;;;;;;;;5072881;28;20021;-62
2022/08/14 11:48:52;;;;;;;14.15;4.40;;;;;;;;;;5072083;28;20367;-61
2022/08/14 11:51:22;;;;;;;7.55;2.83;;;;;;;;;;5071349;28;20025;-61
2022/08/14 11:54:02;;;;;;;8.60;2.30;;;;;;;;;;5071366;28;20535;-61
2022/08/14 11:56:41;;;;;;;8.65;2.40;;;;;;;;;;5071554;28;20078;-61
2022/08/14 11:59:13;;;;;;;3.47;1.98;;;;;;;;;;5071303;28;20481;-61
2022/08/14 12:01:39;;;;;;;6.78;2.92;;;;;;;;;;5072203;28;20054;-61
2022/08/14 12:04:16;;;;;;;8.80;2.45;;;;;;;;;;5072188;28;20029;-62
2022/08/14 12:06:47;;;;;;;7.63;2.28;;;;;;;;;;5072545;28;20029;-61
2022/08/14 12:09:13;;;;;;;5.43;2.22;;;;;;;;;;5072650;28;20028;-62
2022/08/14 12:11:39;;;;;;;4.55;2.45;;;;;;;;;;5072719;28;20020;-61
2022/08/14 12:14:08;;;;;;;4.57;2.53;;;;;;;;;;5072301;28;20028;-61
2022/08/14 12:16:36;;;;;;;4.50;2.30;;;;;;;;;;5072694;28;20368;-60
2022/08/14 12:19:02;;;;;;;4.65;2.28;;;;;;;;;;5072029;28;20040;-61
2022/08/14 12:21:28;;;;;;;6.95;2.35;;;;;;;;;;5072559;28;20082;-61
2022/08/14 12:24:08;;;;;;;4.57;2.17;;;;;;;;;;5072293;28;20154;-62
2022/08/14 12:26:35;;;;;;;3.72;2.00;;;;;;;;;;5072391;28;20453;-61
2022/08/14 12:29:06;;;;;;;4.28;2.00;;;;;;;;;;5072228;28;20034;-61
2022/08/14 12:31:32;;;;;;;3.38;2.08;;;;;;;;;;5071222;28;20029;-61
2022/08/14 12:34:01;;;;;;;5.20;2.30;;;;;;;;;;5072270;28;20027;-61
2022/08/14 12:36:30;;;;;;;3.95;2.13;;;;;;;;;;5072213;28;20032;-61
2022/08/14 12:39:00;;;;;;;5.03;2.20;;;;;;;;;;5071259;28;20047;-61
2022/08/14 12:41:29;;;;;;;3.72;2.03;;;;;;;;;;5072457;28;20047;-62
2022/08/14 12:43:58;;;;;;;6.38;1.90;;;;;;;;;;5072072;28;20473;-62
2022/08/14 13:50:14;;;;;;;8.70;3.63;;;;;;;;;;5108859;27;20396;-64
2022/08/14 13:52:54;;;;;;;4.60;2.07;;;;;;;;;;5109068;28;20036;-65
2022/08/14 13:55:29;;;;;;;;;;;;;;;;;;5109314;28;20035;-64
2022/08/14 13:57:59;;;;;;;4.53;2.67;;;;;;;;;;5108765;28;19928;-64
2022/08/14 14:00:25;;;;;;;8.13;1.80;;;;;;;;;;5108755;28;20047;-63
2022/08/14 14:02:51;;;;;;;6.13;2.17;;;;;;;;;;5109016;28;20055;-64
2022/08/14 14:05:18;;;;;;;4.13;2.10;;;;;;;;;;5108865;28;20031;-62
2022/08/14 14:07:50;;;;;;;5.88;1.83;;;;;;;;;;5108679;28;20556;-64
2022/08/14 14:10:19;;;;;;;3.47;1.85;;;;;;;;;;5108355;28;20032;-65
2022/08/14 14:12:45;;;;;;;;;;;;;;;;;;5108874;28;20103;-63
2022/08/14 14:15:13;;;;;;;6.80;2.00;;;;;;;;;;5108540;28;19950;-63
2022/08/14 14:17:40;;;;;;;5.95;1.90;;;;;;;;;;5108652;28;20102;-63
2022/08/14 14:20:12;;;;;;;4.60;2.20;;;;;;;;;;5108424;28;20085;-64
2022/08/14 14:22:42;;;;;;;5.60;1.90;;;;;;;;;;5108434;28;20024;-64
2022/08/14 14:25:10;;;;;;;6.32;2.08;;;;;;;;;;5108427;28;20023;-63
2022/08/14 14:27:38;;;;;;;4.32;2.20;;;;;;;;;;5108371;28;20449;-63
2022/08/14 14:30:05;;;;;;;3.75;2.05;;;;;;;;;;5108275;28;20395;-64
2022/08/14 14:32:31;;;;;;;9.40;1.83;;;;;;;;;;5108370;28;20027;-63
2022/08/14 14:35:01;;;;;;;3.17;1.92;;;;;;;;;;5108262;28;20555;-63
2022/08/14 14:37:29;;;;;;;3.28;1.70;;;;;;;;;;5107899;28;20107;-65
2022/08/14 14:39:56;;;;;;;6.53;1.88;;;;;;;;;;5107672;28;20394;-65
2022/08/14 14:42:26;;;;;;;4.82;1.80;;;;;;;;;;5108015;28;20378;-63
2022/08/14 14:44:58;;;;;;;8.90;1.85;;;;;;;;;;5108086;28;20039;-64
2022/08/14 14:47:24;;;;;;;5.82;1.90;;;;;;;;;;5107965;28;20500;-63
2022/08/14 14:49:51;;;;;;;6.05;2.10;;;;;;;;;;5101600;28;20128;-64
2022/08/14 14:52:22;;;;;;;5.13;2.00;;;;;;;;;;5094000;28;20028;-63
2022/08/14 14:54:48;;;;;;;5.10;1.92;;;;;;;;;;5094416;28;20486;-63
2022/08/14 14:57:16;;;;;;;7.10;1.70;;;;;;;;;;5094232;28;20063;-63
2022/08/14 14:59:42;;;;;;;3.08;1.80;;;;;;;;;;5094102;28;20024;-63
2022/08/14 15:02:16;;;;;;;4.43;1.85;;;;;;;;;;5094092;28;20028;-63
2022/08/14 15:04:42;;;;;;;4.20;1.70;;;;;;;;;;5094095;28;20046;-63
2022/08/14 15:07:07;;;;;;;2.85;1.90;;;;;;;;;;5093932;28;20107;-64
2022/08/14 15:09:33;;;;;;;3.67;1.88;;;;;;;;;;5094044;28;20111;-65
2022/08/14 15:11:59;;;;;;;4.75;1.85;;;;;;;;;;5093779;28;20500;-63
2022/08/14 15:14:24;;;;;;;2.78;1.88;;;;;;;;;;5093735;28;20446;-63
2022/08/14 15:16:50;;;;;;;6.10;2.45;;;;;;;;;;5093952;28;20505;-64
2022/08/14 15:19:16;;;;;;;4.68;1.90;;;;;;;;;;5093709;28;20021;-63
2022/08/14 15:21:42;;;;;;;3.13;1.85;;;;;;;;;;5093510;28;20089;-63
2022/08/14 15:24:07;;;;;;;6.47;2.60;;;;;;;;;;5092410;28;20028;-64
2022/08/14 15:26:34;;;;;;;10.40;2.38;;;;;;;;;;5093524;28;20058;-63
2022/08/14 15:29:02;;;;;;;7.53;2.40;;;;;;;;;;5093225;28;20035;-64
2022/08/14 15:31:27;;;;;;;5.10;1.88;;;;;;;;;;5093475;28;20016;-63
2022/08/14 15:34:11;;;;;;;3.75;2.20;;;;;;;;;;5093538;28;20385;-64
2022/08/14 15:36:38;;;;;;;6.18;1.90;;;;;;;;;;5093366;28;20024;-64
2022/08/14 15:39:04;;;;;;;3.90;1.80;;;;;;;;;;5093459;28;20032;-63
2022/08/14 15:41:30;;;;;;;5.32;2.63;;;;;;;;;;5092935;28;20030;-64
2022/08/14 15:43:58;;;;;;;10.88;5.43;;;;;;;;;;5093197;28;20560;-64
2022/08/14 15:46:24;;;;;;;11.40;4.68;;;;;;;;;;5093245;28;20039;-65
2022/08/14 15:48:49;;;;;;;4.15;2.28;;;;;;;;;;5092845;28;20156;-65
2022/08/14 15:51:15;;;;;;;9.90;2.85;;;;;;;;;;5092865;28;20482;-63
2022/08/14 15:53:40;;;;;;;6.50;2.58;;;;;;;;;;5093195;28;20069;-63
2022/08/14 15:56:06;;;;;;;8.15;2.58;;;;;;;;;;5093080;28;20097;-63
2022/08/14 15:58:32;;;;;;;5.53;2.92;;;;;;;;;;5091760;28;20035;-65
2022/08/14 16:03:42;;;;;;;7.65;2.60;;;;;;;;;;5093025;28;20100;-63
2022/08/14 16:06:12;;;;;;;8.02;2.55;;;;;;;;;;5092638;28;20024;-64
2022/08/14 16:08:38;;;;;;;7.45;2.28;;;;;;;;;;5092803;28;20024;-64
2022/08/14 16:11:07;;;;;;;6.80;2.30;;;;;;;;;;5092827;28;20032;-63
2022/08/14 16:13:40;;;;;;;5.67;2.23;;;;;;;;;;5092757;28;20562;-62
2022/08/14 16:16:27;;;;;;;4.78;2.70;;;;;;;;;;5092704;28;20272;-63